Tropical Cyclones
[Index]
Main Index Home Page Stock Weather Photos Extreme Storms Discussion Storm News and Storm Chasing Reports Tropical Cyclones / Hurricanes / Typhoons Weather Data and Links Wild Fires / Bushfires Weather Observation Techniques Weather Picture Catalogue Tornado Pictures and Reports Stock Video Footage and DVDs for sale
Season 1969-1970 Tropical Cyclone JANE Track Map
Season 1969-1970 Summaries: [BoM-AU] [JTWC-AU] [JTWC-SIO] [JTWC-SPAC] [JTWC-SH]
<<- Previous TC | JTWC 1969-1970 Season | Next TC ->>

click for intensity scale information  Lat/long Grid: Show Hide

 Date Labels: Show Hide

Joint Typhoon Warning Centre Cyclone Data

Name: JANE
Number: 727 / 7014

09 Feb 1970 00:00 UTC to 02 Mar 1970 00:00 UTC

    date/time    lat    long     hPa   cat  kts
1970-02-09 00   15.5    82.6                              
1970-02-09 06   15.8    81.9                              
1970-02-09 12   16.1    81.2                              
1970-02-09 18   16.5    80.5                              
1970-02-10 00   16.9    79.9                              
1970-02-10 06   17.0    79.6                              
1970-02-10 12   17.1    79.4                              
1970-02-10 18   17.3    79.1                              
1970-02-11 00   17.4    78.7                              
1970-02-11 06   17.4    78.0                              
1970-02-11 12   17.2    77.2                              
1970-02-11 18   17.0    76.4                              
1970-02-12 00   16.7    75.8                              
1970-02-12 06   16.4    75.5                              
1970-02-12 12   16.1    75.1                              
1970-02-12 18   15.9    74.7                              
1970-02-13 00   15.7    74.4                              
1970-02-13 06   15.4    74.1                              
1970-02-13 12   15.0    73.8                              
1970-02-13 18   14.8    73.5                              
1970-02-14 00   14.6    73.2                              
1970-02-14 06   14.3    72.8                              
1970-02-14 12   14.0    72.3                              
1970-02-14 18   13.9    71.7                              
1970-02-15 00   14.0    71.1                              
1970-02-15 06   14.2    70.8                              
1970-02-15 12   14.3    70.6                              
1970-02-15 18   14.4    70.3                              
1970-02-16 00   14.5    70.0                              
1970-02-16 06   14.6    69.7                              
1970-02-16 12   14.7    69.4                              
1970-02-16 18   14.8    69.2                              
1970-02-17 00   14.9    68.9                              
1970-02-17 06   15.0    68.4                              
1970-02-17 12   15.2    67.7                              
1970-02-17 18   15.4    67.0                              
1970-02-18 00   15.6    66.4                              
1970-02-18 06   15.8    65.8                              
1970-02-18 12   16.0    65.3                              
1970-02-18 18   16.3    64.8                              
1970-02-19 00   16.7    64.0                              
1970-02-19 06   17.0    62.8                              
1970-02-19 12   17.4    61.5                              
1970-02-19 18   17.7    60.3                              
1970-02-20 00   18.0    59.1                              
1970-02-20 06   18.2    57.9                              
1970-02-20 12   18.3    56.8                              
1970-02-20 18   18.5    55.9                              
1970-02-21 00   18.7    55.0                              
1970-02-21 06   18.8    53.8                              
1970-02-21 12   19.0    52.5                              
1970-02-21 18   19.2    51.4                              
1970-02-22 00   19.5    50.5                              
1970-02-22 06   19.6    50.2                              
1970-02-22 12   19.8    49.9                              
1970-02-22 18   20.0    49.3                              
1970-02-23 00   20.3    48.7                              
1970-02-23 06   20.6    48.1                              
1970-02-23 12   21.0    47.5                              
1970-02-23 18   21.4    46.8                              
1970-02-24 00   22.0    46.1                              
1970-02-24 06   22.7    45.7                              
1970-02-24 12   23.5    45.2                              
1970-02-24 18   24.3    44.8                              
1970-02-25 00   25.1    44.3                              
1970-02-25 06   25.8    44.8                              
1970-02-25 12   26.3    46.0                              
1970-02-25 18   26.6    47.2                              
1970-02-26 00   26.8    48.3                              
1970-02-26 06   26.9    49.1                              
1970-02-26 12   27.1    49.9                              
1970-02-26 18   27.3    50.6                              
1970-02-27 00   27.5    51.3                              
1970-02-27 06   27.8    51.9                              
1970-02-27 12   28.2    52.5                              
1970-02-27 18   28.6    53.3                              
1970-02-28 00   29.0    54.0                              
1970-02-28 06   29.4    54.6                              
1970-02-28 12   29.7    55.1                              
1970-02-28 18   30.0    55.6                              
1970-03-01 00   30.8    56.4                              
1970-03-01 06   32.4    58.8                              
1970-03-01 12   34.2    61.8                              
1970-03-01 18   35.8    64.2                              
1970-03-02 00   37.4    66.6                              
Winds are 1-min average.

Tropical cyclone tracks developed by Michael Bath using data from the Joint Typhoon Warning Centre Best Tracks and Google Maps.


[Australian Severe Weather index] [Copyright Notice] [Email Contacts] [Search This Site] [Privacy Policy]
Document: tropical_cyclone_jane.htm Updated: 18 September 2016